sensor_id;sensor_type;location;lat;lon;timestamp;P1;durP1;ratioP1;P2;durP2;ratioP2
70975;SDS011;58635;51.198;6.010;2023-08-06T00:01:45;3.28;;;2.35;;
70975;SDS011;58635;51.198;6.010;2023-08-06T00:04:11;4.40;;;2.60;;
70975;SDS011;58635;51.198;6.010;2023-08-06T00:06:38;5.07;;;2.83;;
70975;SDS011;58635;51.198;6.010;2023-08-06T00:09:04;5.88;;;2.90;;
70975;SDS011;58635;51.198;6.010;2023-08-06T00:11:30;4.57;;;2.83;;
70975;SDS011;58635;51.198;6.010;2023-08-06T00:13:57;6.70;;;2.90;;
70975;SDS011;58635;51.198;6.010;2023-08-06T00:16:23;4.38;;;2.70;;
70975;SDS011;58635;51.198;6.010;2023-08-06T00:18:50;4.18;;;2.75;;
70975;SDS011;58635;51.198;6.010;2023-08-06T00:21:16;4.00;;;2.05;;
70975;SDS011;58635;51.198;6.010;2023-08-06T00:23:43;4.45;;;2.53;;
70975;SDS011;58635;51.198;6.010;2023-08-06T00:26:09;6.20;;;2.25;;
70975;SDS011;58635;51.198;6.010;2023-08-06T00:28:35;3.97;;;1.88;;
70975;SDS011;58635;51.198;6.010;2023-08-06T00:31:02;2.65;;;1.60;;
70975;SDS011;58635;51.198;6.010;2023-08-06T00:33:28;5.15;;;1.90;;
70975;SDS011;58635;51.198;6.010;2023-08-06T00:35:54;4.30;;;1.88;;
70975;SDS011;58635;51.198;6.010;2023-08-06T00:38:21;4.88;;;1.80;;
70975;SDS011;58635;51.198;6.010;2023-08-06T00:40:47;3.88;;;2.17;;
70975;SDS011;58635;51.198;6.010;2023-08-06T00:43:14;3.60;;;1.75;;
70975;SDS011;58635;51.198;6.010;2023-08-06T00:45:40;2.78;;;1.73;;
70975;SDS011;58635;51.198;6.010;2023-08-06T00:48:08;4.45;;;1.42;;
70975;SDS011;58635;51.198;6.010;2023-08-06T00:50:35;3.05;;;1.70;;
70975;SDS011;58635;51.198;6.010;2023-08-06T00:53:01;3.58;;;2.00;;
70975;SDS011;58635;51.198;6.010;2023-08-06T00:55:28;3.28;;;1.60;;
70975;SDS011;58635;51.198;6.010;2023-08-06T00:57:55;3.40;;;1.60;;
70975;SDS011;58635;51.198;6.010;2023-08-06T01:00:22;3.63;;;1.55;;
70975;SDS011;58635;51.198;6.010;2023-08-06T01:02:50;4.75;;;1.50;;
70975;SDS011;58635;51.198;6.010;2023-08-06T01:05:16;3.40;;;1.65;;
70975;SDS011;58635;51.198;6.010;2023-08-06T01:10:53;3.65;;;1.60;;
70975;SDS011;58635;51.198;6.010;2023-08-06T01:16:17;2.70;;;1.42;;
70975;SDS011;58635;51.198;6.010;2023-08-06T01:18:49;4.68;;;1.67;;
70975;SDS011;58635;51.198;6.010;2023-08-06T01:21:16;2.30;;;1.30;;
70975;SDS011;58635;51.198;6.010;2023-08-06T01:23:43;5.25;;;1.60;;
70975;SDS011;58635;51.198;6.010;2023-08-06T01:26:23;3.47;;;1.70;;
70975;SDS011;58635;51.198;6.010;2023-08-06T01:31:24;4.43;;;2.60;;
70975;SDS011;58635;51.198;6.010;2023-08-06T01:33:53;4.03;;;2.47;;
70975;SDS011;58635;51.198;6.010;2023-08-06T01:36:22;3.85;;;2.50;;
70975;SDS011;58635;51.198;6.010;2023-08-06T01:38:51;6.88;;;2.40;;
70975;SDS011;58635;51.198;6.010;2023-08-06T01:41:18;3.38;;;2.10;;
70975;SDS011;58635;51.198;6.010;2023-08-06T01:43:45;4.78;;;2.10;;
70975;SDS011;58635;51.198;6.010;2023-08-06T01:46:11;3.60;;;1.77;;
70975;SDS011;58635;51.198;6.010;2023-08-06T01:48:38;4.38;;;1.80;;
70975;SDS011;58635;51.198;6.010;2023-08-06T01:51:04;6.72;;;1.80;;
70975;SDS011;58635;51.198;6.010;2023-08-06T01:53:32;3.38;;;1.77;;
70975;SDS011;58635;51.198;6.010;2023-08-06T01:55:59;4.40;;;1.75;;
70975;SDS011;58635;51.198;6.010;2023-08-06T01:58:25;3.05;;;1.60;;
70975;SDS011;58635;51.198;6.010;2023-08-06T02:00:51;2.80;;;1.65;;
70975;SDS011;58635;51.198;6.010;2023-08-06T02:03:18;4.80;;;1.98;;
70975;SDS011;58635;51.198;6.010;2023-08-06T02:05:44;3.72;;;1.52;;
70975;SDS011;58635;51.198;6.010;2023-08-06T02:08:11;3.85;;;1.77;;
70975;SDS011;58635;51.198;6.010;2023-08-06T02:10:38;3.55;;;1.70;;
70975;SDS011;58635;51.198;6.010;2023-08-06T02:13:04;2.97;;;1.45;;
70975;SDS011;58635;51.198;6.010;2023-08-06T02:15:30;3.35;;;1.65;;
70975;SDS011;58635;51.198;6.010;2023-08-06T02:17:57;3.40;;;1.60;;
70975;SDS011;58635;51.198;6.010;2023-08-06T02:20:23;3.03;;;1.70;;
70975;SDS011;58635;51.198;6.010;2023-08-06T02:22:49;3.00;;;1.70;;
70975;SDS011;58635;51.198;6.010;2023-08-06T02:25:16;4.93;;;1.90;;
70975;SDS011;58635;51.198;6.010;2023-08-06T02:27:42;4.50;;;1.80;;
70975;SDS011;58635;51.198;6.010;2023-08-06T02:30:08;3.38;;;1.70;;
70975;SDS011;58635;51.198;6.010;2023-08-06T02:32:35;4.63;;;1.80;;
70975;SDS011;58635;51.198;6.010;2023-08-06T02:35:02;4.38;;;1.50;;
70975;SDS011;58635;51.198;6.010;2023-08-06T02:37:28;4.03;;;1.58;;
70975;SDS011;58635;51.198;6.010;2023-08-06T02:39:54;4.88;;;1.70;;
70975;SDS011;58635;51.198;6.010;2023-08-06T02:42:21;4.45;;;1.80;;
70975;SDS011;58635;51.198;6.010;2023-08-06T02:44:50;5.03;;;1.52;;
70975;SDS011;58635;51.198;6.010;2023-08-06T02:47:17;3.50;;;1.83;;
70975;SDS011;58635;51.198;6.010;2023-08-06T02:49:43;4.32;;;1.60;;
70975;SDS011;58635;51.198;6.010;2023-08-06T02:52:10;4.32;;;1.50;;
70975;SDS011;58635;51.198;6.010;2023-08-06T02:54:36;3.17;;;1.67;;
70975;SDS011;58635;51.198;6.010;2023-08-06T02:57:02;3.83;;;1.75;;
70975;SDS011;58635;51.198;6.010;2023-08-06T02:59:29;2.58;;;1.50;;
70975;SDS011;58635;51.198;6.010;2023-08-06T03:01:56;2.45;;;1.48;;
70975;SDS011;58635;51.198;6.010;2023-08-06T03:04:22;5.40;;;3.50;;
70975;SDS011;58635;51.198;6.010;2023-08-06T03:06:49;4.22;;;2.28;;
70975;SDS011;58635;51.198;6.010;2023-08-06T03:09:17;3.88;;;1.65;;
70975;SDS011;58635;51.198;6.010;2023-08-06T03:11:43;3.13;;;1.90;;
70975;SDS011;58635;51.198;6.010;2023-08-06T03:14:10;3.40;;;1.25;;
70975;SDS011;58635;51.198;6.010;2023-08-06T03:16:36;3.45;;;1.70;;
70975;SDS011;58635;51.198;6.010;2023-08-06T03:19:02;3.42;;;1.42;;
70975;SDS011;58635;51.198;6.010;2023-08-06T03:21:29;3.17;;;1.50;;
70975;SDS011;58635;51.198;6.010;2023-08-06T03:23:55;3.63;;;1.48;;
70975;SDS011;58635;51.198;6.010;2023-08-06T03:26:21;3.13;;;1.55;;
70975;SDS011;58635;51.198;6.010;2023-08-06T03:28:48;4.38;;;1.38;;
70975;SDS011;58635;51.198;6.010;2023-08-06T03:31:14;3.67;;;1.30;;
70975;SDS011;58635;51.198;6.010;2023-08-06T03:33:40;3.65;;;1.10;;
70975;SDS011;58635;51.198;6.010;2023-08-06T03:36:07;3.03;;;1.20;;
70975;SDS011;58635;51.198;6.010;2023-08-06T03:38:33;4.93;;;1.63;;
70975;SDS011;58635;51.198;6.010;2023-08-06T03:41:00;4.95;;;1.77;;
70975;SDS011;58635;51.198;6.010;2023-08-06T03:43:26;4.38;;;2.00;;
70975;SDS011;58635;51.198;6.010;2023-08-06T03:45:52;3.30;;;1.60;;
70975;SDS011;58635;51.198;6.010;2023-08-06T03:48:19;4.18;;;1.40;;
70975;SDS011;58635;51.198;6.010;2023-08-06T03:50:45;2.63;;;1.30;;
70975;SDS011;58635;51.198;6.010;2023-08-06T03:53:11;4.15;;;1.60;;
70975;SDS011;58635;51.198;6.010;2023-08-06T03:55:38;3.28;;;1.73;;
70975;SDS011;58635;51.198;6.010;2023-08-06T03:58:04;5.07;;;1.40;;
70975;SDS011;58635;51.198;6.010;2023-08-06T04:00:31;4.50;;;1.50;;
70975;SDS011;58635;51.198;6.010;2023-08-06T04:02:57;4.70;;;1.52;;
70975;SDS011;58635;51.198;6.010;2023-08-06T04:05:23;2.90;;;1.58;;
70975;SDS011;58635;51.198;6.010;2023-08-06T04:07:50;2.67;;;1.40;;
70975;SDS011;58635;51.198;6.010;2023-08-06T04:10:16;2.92;;;1.60;;
70975;SDS011;58635;51.198;6.010;2023-08-06T04:12:43;3.40;;;1.33;;
70975;SDS011;58635;51.198;6.010;2023-08-06T04:15:09;4.35;;;1.40;;
70975;SDS011;58635;51.198;6.010;2023-08-06T04:17:35;4.28;;;1.25;;
70975;SDS011;58635;51.198;6.010;2023-08-06T04:20:02;4.10;;;1.33;;
70975;SDS011;58635;51.198;6.010;2023-08-06T04:22:29;3.33;;;1.50;;
70975;SDS011;58635;51.198;6.010;2023-08-06T04:24:55;2.50;;;1.15;;
70975;SDS011;58635;51.198;6.010;2023-08-06T04:27:21;3.50;;;1.38;;
70975;SDS011;58635;51.198;6.010;2023-08-06T04:29:48;4.07;;;1.30;;
70975;SDS011;58635;51.198;6.010;2023-08-06T04:32:14;3.53;;;1.42;;
70975;SDS011;58635;51.198;6.010;2023-08-06T04:34:41;2.30;;;1.30;;
70975;SDS011;58635;51.198;6.010;2023-08-06T04:37:07;3.55;;;1.33;;
70975;SDS011;58635;51.198;6.010;2023-08-06T04:39:33;1.60;;;1.10;;
70975;SDS011;58635;51.198;6.010;2023-08-06T04:42:00;2.88;;;1.45;;
70975;SDS011;58635;51.198;6.010;2023-08-06T04:44:26;4.88;;;1.17;;
70975;SDS011;58635;51.198;6.010;2023-08-06T04:46:52;1.73;;;1.00;;
70975;SDS011;58635;51.198;6.010;2023-08-06T04:49:22;2.83;;;1.20;;
70975;SDS011;58635;51.198;6.010;2023-08-06T04:51:49;2.88;;;1.15;;
70975;SDS011;58635;51.198;6.010;2023-08-06T04:54:15;2.20;;;1.10;;
70975;SDS011;58635;51.198;6.010;2023-08-06T04:56:41;2.78;;;1.13;;
70975;SDS011;58635;51.198;6.010;2023-08-06T04:59:08;2.42;;;1.27;;
70975;SDS011;58635;51.198;6.010;2023-08-06T05:01:34;2.33;;;1.00;;
70975;SDS011;58635;51.198;6.010;2023-08-06T05:04:01;2.45;;;1.05;;
70975;SDS011;58635;51.198;6.010;2023-08-06T05:06:27;1.60;;;0.98;;
70975;SDS011;58635;51.198;6.010;2023-08-06T05:08:54;3.15;;;1.10;;
70975;SDS011;58635;51.198;6.010;2023-08-06T05:11:20;1.63;;;1.00;;
70975;SDS011;58635;51.198;6.010;2023-08-06T05:13:46;2.75;;;1.02;;
70975;SDS011;58635;51.198;6.010;2023-08-06T05:16:13;2.70;;;1.15;;
70975;SDS011;58635;51.198;6.010;2023-08-06T05:18:39;2.22;;;1.10;;
70975;SDS011;58635;51.198;6.010;2023-08-06T05:21:07;2.67;;;1.30;;
70975;SDS011;58635;51.198;6.010;2023-08-06T05:23:33;2.92;;;1.70;;
70975;SDS011;58635;51.198;6.010;2023-08-06T05:25:59;2.83;;;1.20;;
70975;SDS011;58635;51.198;6.010;2023-08-06T05:28:26;3.08;;;0.98;;
70975;SDS011;58635;51.198;6.010;2023-08-06T05:30:52;3.15;;;1.20;;
70975;SDS011;58635;51.198;6.010;2023-08-06T05:33:18;1.83;;;1.00;;
70975;SDS011;58635;51.198;6.010;2023-08-06T05:35:45;1.90;;;1.10;;
70975;SDS011;58635;51.198;6.010;2023-08-06T05:38:11;3.58;;;1.05;;
70975;SDS011;58635;51.198;6.010;2023-08-06T05:40:37;3.05;;;1.80;;
70975;SDS011;58635;51.198;6.010;2023-08-06T05:43:06;3.33;;;1.50;;
70975;SDS011;58635;51.198;6.010;2023-08-06T05:45:33;2.67;;;1.55;;
70975;SDS011;58635;51.198;6.010;2023-08-06T05:47:59;2.58;;;1.30;;
70975;SDS011;58635;51.198;6.010;2023-08-06T05:50:25;2.33;;;1.20;;
70975;SDS011;58635;51.198;6.010;2023-08-06T05:52:52;1.95;;;1.00;;
70975;SDS011;58635;51.198;6.010;2023-08-06T05:55:19;1.83;;;0.90;;
70975;SDS011;58635;51.198;6.010;2023-08-06T05:57:46;0.95;;;0.80;;
70975;SDS011;58635;51.198;6.010;2023-08-06T06:00:12;3.08;;;0.90;;
70975;SDS011;58635;51.198;6.010;2023-08-06T06:02:39;2.30;;;1.00;;
70975;SDS011;58635;51.198;6.010;2023-08-06T06:05:05;1.08;;;0.80;;
70975;SDS011;58635;51.198;6.010;2023-08-06T06:07:32;2.13;;;0.90;;
70975;SDS011;58635;51.198;6.010;2023-08-06T06:09:58;1.40;;;0.80;;
70975;SDS011;58635;51.198;6.010;2023-08-06T06:12:24;2.60;;;1.00;;
70975;SDS011;58635;51.198;6.010;2023-08-06T06:14:52;1.10;;;0.70;;
70975;SDS011;58635;51.198;6.010;2023-08-06T06:17:18;1.88;;;1.08;;
70975;SDS011;58635;51.198;6.010;2023-08-06T06:19:45;2.55;;;1.45;;
70975;SDS011;58635;51.198;6.010;2023-08-06T06:22:11;2.47;;;1.20;;
70975;SDS011;58635;51.198;6.010;2023-08-06T06:24:37;1.50;;;0.90;;
70975;SDS011;58635;51.198;6.010;2023-08-06T06:27:04;2.08;;;0.80;;
70975;SDS011;58635;51.198;6.010;2023-08-06T06:29:33;1.80;;;0.85;;
70975;SDS011;58635;51.198;6.010;2023-08-06T06:32:00;1.27;;;0.70;;
70975;SDS011;58635;51.198;6.010;2023-08-06T06:34:26;1.55;;;0.70;;
70975;SDS011;58635;51.198;6.010;2023-08-06T06:36:53;0.82;;;0.55;;
70975;SDS011;58635;51.198;6.010;2023-08-06T06:39:20;1.25;;;0.60;;
70975;SDS011;58635;51.198;6.010;2023-08-06T06:41:50;1.70;;;0.70;;
70975;SDS011;58635;51.198;6.010;2023-08-06T06:44:16;1.42;;;0.70;;
70975;SDS011;58635;51.198;6.010;2023-08-06T06:46:42;2.13;;;0.80;;
70975;SDS011;58635;51.198;6.010;2023-08-06T06:49:09;2.03;;;0.80;;
70975;SDS011;58635;51.198;6.010;2023-08-06T06:51:35;0.85;;;0.60;;
70975;SDS011;58635;51.198;6.010;2023-08-06T06:54:02;0.90;;;0.70;;
70975;SDS011;58635;51.198;6.010;2023-08-06T06:56:28;2.38;;;0.88;;
70975;SDS011;58635;51.198;6.010;2023-08-06T06:58:54;1.63;;;0.70;;
70975;SDS011;58635;51.198;6.010;2023-08-06T07:01:21;1.02;;;0.60;;
70975;SDS011;58635;51.198;6.010;2023-08-06T07:03:47;1.02;;;0.52;;
70975;SDS011;58635;51.198;6.010;2023-08-06T07:06:20;0.50;;;0.50;;
70975;SDS011;58635;51.198;6.010;2023-08-06T07:08:48;1.42;;;0.50;;
70975;SDS011;58635;51.198;6.010;2023-08-06T07:11:14;1.50;;;0.90;;
70975;SDS011;58635;51.198;6.010;2023-08-06T07:13:40;2.05;;;0.73;;
70975;SDS011;58635;51.198;6.010;2023-08-06T07:16:07;1.38;;;0.60;;
70975;SDS011;58635;51.198;6.010;2023-08-06T07:18:33;0.75;;;0.50;;
70975;SDS011;58635;51.198;6.010;2023-08-06T07:20:59;1.65;;;0.55;;
70975;SDS011;58635;51.198;6.010;2023-08-06T07:23:26;1.27;;;0.73;;
70975;SDS011;58635;51.198;6.010;2023-08-06T07:25:52;2.08;;;0.75;;
70975;SDS011;58635;51.198;6.010;2023-08-06T07:28:19;1.30;;;0.70;;
70975;SDS011;58635;51.198;6.010;2023-08-06T07:30:45;1.85;;;0.80;;
70975;SDS011;58635;51.198;6.010;2023-08-06T07:33:12;1.35;;;0.73;;
70975;SDS011;58635;51.198;6.010;2023-08-06T07:35:38;1.33;;;0.68;;
70975;SDS011;58635;51.198;6.010;2023-08-06T07:38:05;0.95;;;0.55;;
70975;SDS011;58635;51.198;6.010;2023-08-06T07:40:32;1.50;;;0.70;;
70975;SDS011;58635;51.198;6.010;2023-08-06T07:42:58;1.00;;;0.52;;
70975;SDS011;58635;51.198;6.010;2023-08-06T07:45:24;1.05;;;0.70;;
70975;SDS011;58635;51.198;6.010;2023-08-06T07:47:52;1.17;;;0.70;;
70975;SDS011;58635;51.198;6.010;2023-08-06T07:50:19;1.30;;;0.80;;
70975;SDS011;58635;51.198;6.010;2023-08-06T07:52:45;2.35;;;0.85;;
70975;SDS011;58635;51.198;6.010;2023-08-06T07:55:12;1.58;;;0.82;;
70975;SDS011;58635;51.198;6.010;2023-08-06T07:57:38;1.67;;;1.10;;
70975;SDS011;58635;51.198;6.010;2023-08-06T08:00:04;2.63;;;1.00;;
70975;SDS011;58635;51.198;6.010;2023-08-06T08:02:31;2.72;;;1.55;;
70975;SDS011;58635;51.198;6.010;2023-08-06T08:04:58;3.80;;;1.92;;
70975;SDS011;58635;51.198;6.010;2023-08-06T08:07:24;3.72;;;1.80;;
70975;SDS011;58635;51.198;6.010;2023-08-06T08:09:50;4.50;;;2.33;;
70975;SDS011;58635;51.198;6.010;2023-08-06T08:12:17;4.22;;;2.20;;
70975;SDS011;58635;51.198;6.010;2023-08-06T08:14:43;3.92;;;1.65;;
70975;SDS011;58635;51.198;6.010;2023-08-06T08:17:11;4.45;;;1.83;;
70975;SDS011;58635;51.198;6.010;2023-08-06T08:19:38;4.00;;;1.75;;
70975;SDS011;58635;51.198;6.010;2023-08-06T08:22:06;3.47;;;1.65;;
70975;SDS011;58635;51.198;6.010;2023-08-06T08:24:33;7.10;;;4.68;;
70975;SDS011;58635;51.198;6.010;2023-08-06T08:26:59;5.28;;;2.33;;
70975;SDS011;58635;51.198;6.010;2023-08-06T08:29:26;3.53;;;1.38;;
70975;SDS011;58635;51.198;6.010;2023-08-06T08:31:52;3.45;;;1.10;;
70975;SDS011;58635;51.198;6.010;2023-08-06T08:34:22;1.92;;;1.00;;
70975;SDS011;58635;51.198;6.010;2023-08-06T08:36:48;1.40;;;1.00;;
70975;SDS011;58635;51.198;6.010;2023-08-06T08:39:16;1.95;;;0.95;;
70975;SDS011;58635;51.198;6.010;2023-08-06T08:41:42;2.13;;;1.00;;
70975;SDS011;58635;51.198;6.010;2023-08-06T08:44:09;1.30;;;0.90;;
70975;SDS011;58635;51.198;6.010;2023-08-06T08:46:37;1.35;;;0.80;;
70975;SDS011;58635;51.198;6.010;2023-08-06T08:49:06;1.73;;;1.00;;
70975;SDS011;58635;51.198;6.010;2023-08-06T08:51:33;2.08;;;1.33;;
70975;SDS011;58635;51.198;6.010;2023-08-06T08:54:02;3.28;;;1.92;;
70975;SDS011;58635;51.198;6.010;2023-08-06T08:56:30;4.40;;;1.98;;
70975;SDS011;58635;51.198;6.010;2023-08-06T08:58:57;2.97;;;1.55;;
70975;SDS011;58635;51.198;6.010;2023-08-06T09:01:24;3.05;;;1.60;;
70975;SDS011;58635;51.198;6.010;2023-08-06T09:03:51;3.67;;;1.80;;
70975;SDS011;58635;51.198;6.010;2023-08-06T09:06:18;2.90;;;1.55;;
70975;SDS011;58635;51.198;6.010;2023-08-06T09:09:32;2.03;;;1.20;;
70975;SDS011;58635;51.198;6.010;2023-08-06T09:11:42;2.53;;;1.53;;
70975;SDS011;58635;51.198;6.010;2023-08-06T09:14:10;2.70;;;1.40;;
70975;SDS011;58635;51.198;6.010;2023-08-06T09:16:37;2.13;;;1.17;;
70975;SDS011;58635;51.198;6.010;2023-08-06T09:19:11;2.15;;;1.35;;
70975;SDS011;58635;51.198;6.010;2023-08-06T09:21:41;3.33;;;1.60;;
70975;SDS011;58635;51.198;6.010;2023-08-06T09:24:09;3.03;;;1.23;;
70975;SDS011;58635;51.198;6.010;2023-08-06T09:26:37;2.88;;;1.30;;
70975;SDS011;58635;51.198;6.010;2023-08-06T09:29:05;5.10;;;1.30;;
70975;SDS011;58635;51.198;6.010;2023-08-06T09:31:44;2.55;;;1.48;;
70975;SDS011;58635;51.198;6.010;2023-08-06T09:34:19;2.80;;;1.30;;
70975;SDS011;58635;51.198;6.010;2023-08-06T09:36:50;5.75;;;1.67;;
70975;SDS011;58635;51.198;6.010;2023-08-06T09:39:26;3.60;;;1.80;;
70975;SDS011;58635;51.198;6.010;2023-08-06T09:42:00;5.20;;;2.13;;
70975;SDS011;58635;51.198;6.010;2023-08-06T09:44:32;3.85;;;2.00;;
70975;SDS011;58635;51.198;6.010;2023-08-06T09:47:00;5.05;;;2.10;;
70975;SDS011;58635;51.198;6.010;2023-08-06T09:51:58;4.90;;;2.25;;
70975;SDS011;58635;51.198;6.010;2023-08-06T09:54:26;6.85;;;2.90;;
70975;SDS011;58635;51.198;6.010;2023-08-06T09:56:54;6.72;;;2.53;;
70975;SDS011;58635;51.198;6.010;2023-08-06T09:59:21;5.65;;;2.45;;
70975;SDS011;58635;51.198;6.010;2023-08-06T10:01:49;6.45;;;2.40;;
70975;SDS011;58635;51.198;6.010;2023-08-06T10:04:17;5.68;;;2.28;;
70975;SDS011;58635;51.198;6.010;2023-08-06T10:06:46;5.60;;;2.50;;
70975;SDS011;58635;51.198;6.010;2023-08-06T10:09:16;5.78;;;2.33;;
70975;SDS011;58635;51.198;6.010;2023-08-06T10:11:44;5.22;;;2.22;;
70975;SDS011;58635;51.198;6.010;2023-08-06T10:14:18;8.85;;;2.30;;
70975;SDS011;58635;51.198;6.010;2023-08-06T10:16:51;6.20;;;2.38;;
70975;SDS011;58635;51.198;6.010;2023-08-06T10:19:19;5.20;;;1.90;;
70975;SDS011;58635;51.198;6.010;2023-08-06T10:24:48;5.43;;;2.10;;
70975;SDS011;58635;51.198;6.010;2023-08-06T10:27:39;6.97;;;2.17;;
70975;SDS011;58635;51.198;6.010;2023-08-06T10:32:51;5.55;;;1.67;;
70975;SDS011;58635;51.198;6.010;2023-08-06T10:38:12;6.07;;;2.00;;
70975;SDS011;58635;51.198;6.010;2023-08-06T10:40:41;6.43;;;2.28;;
70975;SDS011;58635;51.198;6.010;2023-08-06T10:45:53;9.02;;;2.00;;
70975;SDS011;58635;51.198;6.010;2023-08-06T10:48:36;5.50;;;2.00;;
70975;SDS011;58635;51.198;6.010;2023-08-06T10:51:08;5.00;;;1.80;;
70975;SDS011;58635;51.198;6.010;2023-08-06T10:53:36;5.18;;;1.90;;
70975;SDS011;58635;51.198;6.010;2023-08-06T10:56:16;5.72;;;1.80;;
70975;SDS011;58635;51.198;6.010;2023-08-06T10:58:44;4.05;;;1.90;;
70975;SDS011;58635;51.198;6.010;2023-08-06T11:01:11;5.13;;;2.00;;
70975;SDS011;58635;51.198;6.010;2023-08-06T11:03:38;5.80;;;1.98;;
70975;SDS011;58635;51.198;6.010;2023-08-06T11:06:08;6.18;;;2.13;;
70975;SDS011;58635;51.198;6.010;2023-08-06T11:08:36;7.70;;;2.53;;
70975;SDS011;58635;51.198;6.010;2023-08-06T11:11:08;6.32;;;2.10;;
70975;SDS011;58635;51.198;6.010;2023-08-06T11:13:37;5.00;;;1.85;;
70975;SDS011;58635;51.198;6.010;2023-08-06T11:16:05;5.53;;;2.25;;
70975;SDS011;58635;51.198;6.010;2023-08-06T11:18:32;5.88;;;1.70;;
70975;SDS011;58635;51.198;6.010;2023-08-06T11:20:59;8.15;;;1.90;;
70975;SDS011;58635;51.198;6.010;2023-08-06T11:23:27;5.57;;;2.15;;
70975;SDS011;58635;51.198;6.010;2023-08-06T11:25:56;5.47;;;1.85;;
70975;SDS011;58635;51.198;6.010;2023-08-06T11:28:23;5.80;;;1.88;;
70975;SDS011;58635;51.198;6.010;2023-08-06T11:30:51;5.93;;;2.30;;
70975;SDS011;58635;51.198;6.010;2023-08-06T11:33:21;4.43;;;1.92;;
70975;SDS011;58635;51.198;6.010;2023-08-06T11:35:52;4.78;;;2.42;;
70975;SDS011;58635;51.198;6.010;2023-08-06T11:38:20;6.53;;;2.33;;
70975;SDS011;58635;51.198;6.010;2023-08-06T11:40:49;4.45;;;1.70;;
70975;SDS011;58635;51.198;6.010;2023-08-06T11:43:18;4.55;;;1.55;;
70975;SDS011;58635;51.198;6.010;2023-08-06T11:45:46;5.03;;;1.85;;
70975;SDS011;58635;51.198;6.010;2023-08-06T11:48:13;5.30;;;2.05;;
70975;SDS011;58635;51.198;6.010;2023-08-06T11:50:39;5.00;;;1.88;;
70975;SDS011;58635;51.198;6.010;2023-08-06T11:53:06;3.30;;;1.60;;
70975;SDS011;58635;51.198;6.010;2023-08-06T11:55:32;5.30;;;1.60;;
70975;SDS011;58635;51.198;6.010;2023-08-06T11:58:02;4.18;;;1.45;;
70975;SDS011;58635;51.198;6.010;2023-08-06T12:00:30;4.53;;;1.50;;
70975;SDS011;58635;51.198;6.010;2023-08-06T12:02:57;3.30;;;1.60;;
70975;SDS011;58635;51.198;6.010;2023-08-06T12:05:28;4.05;;;1.50;;
70975;SDS011;58635;51.198;6.010;2023-08-06T12:07:56;5.53;;;1.80;;
70975;SDS011;58635;51.198;6.010;2023-08-06T12:10:24;7.72;;;2.58;;
70975;SDS011;58635;51.198;6.010;2023-08-06T12:12:53;8.57;;;3.65;;
70975;SDS011;58635;51.198;6.010;2023-08-06T12:15:20;5.15;;;2.70;;
70975;SDS011;58635;51.198;6.010;2023-08-06T12:17:47;5.15;;;2.08;;
70975;SDS011;58635;51.198;6.010;2023-08-06T12:20:13;9.50;;;2.83;;
70975;SDS011;58635;51.198;6.010;2023-08-06T12:22:40;6.72;;;3.28;;
70975;SDS011;58635;51.198;6.010;2023-08-06T12:25:07;8.82;;;2.80;;
70975;SDS011;58635;51.198;6.010;2023-08-06T12:27:40;6.53;;;2.47;;
70975;SDS011;58635;51.198;6.010;2023-08-06T12:30:08;6.32;;;2.70;;
70975;SDS011;58635;51.198;6.010;2023-08-06T12:32:37;6.88;;;2.42;;
70975;SDS011;58635;51.198;6.010;2023-08-06T12:35:04;8.23;;;2.75;;
70975;SDS011;58635;51.198;6.010;2023-08-06T12:37:33;6.57;;;2.80;;
70975;SDS011;58635;51.198;6.010;2023-08-06T12:39:59;8.27;;;2.88;;
70975;SDS011;58635;51.198;6.010;2023-08-06T12:42:26;6.40;;;2.67;;
70975;SDS011;58635;51.198;6.010;2023-08-06T12:44:52;6.50;;;2.75;;
70975;SDS011;58635;51.198;6.010;2023-08-06T12:47:19;8.40;;;2.80;;
70975;SDS011;58635;51.198;6.010;2023-08-06T12:49:46;8.40;;;2.30;;
70975;SDS011;58635;51.198;6.010;2023-08-06T12:52:12;6.85;;;2.35;;
70975;SDS011;58635;51.198;6.010;2023-08-06T12:54:41;7.78;;;2.40;;
70975;SDS011;58635;51.198;6.010;2023-08-06T12:57:07;5.38;;;2.30;;
70975;SDS011;58635;51.198;6.010;2023-08-06T12:59:33;6.97;;;2.20;;
70975;SDS011;58635;51.198;6.010;2023-08-06T13:02:02;7.60;;;2.35;;
70975;SDS011;58635;51.198;6.010;2023-08-06T13:04:29;6.10;;;2.10;;
70975;SDS011;58635;51.198;6.010;2023-08-06T13:06:55;8.27;;;2.60;;
70975;SDS011;58635;51.198;6.010;2023-08-06T13:09:21;6.78;;;2.38;;
70975;SDS011;58635;51.198;6.010;2023-08-06T13:11:48;6.35;;;1.80;;
70975;SDS011;58635;51.198;6.010;2023-08-06T13:14:16;3.72;;;1.70;;
70975;SDS011;58635;51.198;6.010;2023-08-06T13:16:43;4.93;;;1.80;;
70975;SDS011;58635;51.198;6.010;2023-08-06T13:19:10;4.45;;;1.35;;
70975;SDS011;58635;51.198;6.010;2023-08-06T13:24:15;3.00;;;1.10;;
70975;SDS011;58635;51.198;6.010;2023-08-06T13:26:42;4.15;;;1.30;;
70975;SDS011;58635;51.198;6.010;2023-08-06T13:29:08;6.18;;;1.40;;
70975;SDS011;58635;51.198;6.010;2023-08-06T13:31:35;5.82;;;1.45;;
70975;SDS011;58635;51.198;6.010;2023-08-06T13:34:01;5.72;;;1.48;;
70975;SDS011;58635;51.198;6.010;2023-08-06T13:36:27;5.65;;;1.33;;
70975;SDS011;58635;51.198;6.010;2023-08-06T13:38:54;3.97;;;1.00;;
70975;SDS011;58635;51.198;6.010;2023-08-06T13:41:21;4.55;;;1.25;;
70975;SDS011;58635;51.198;6.010;2023-08-06T13:43:48;3.45;;;1.15;;
70975;SDS011;58635;51.198;6.010;2023-08-06T13:46:14;4.65;;;1.38;;
70975;SDS011;58635;51.198;6.010;2023-08-06T13:48:44;4.40;;;1.33;;
70975;SDS011;58635;51.198;6.010;2023-08-06T13:51:11;6.20;;;1.30;;
70975;SDS011;58635;51.198;6.010;2023-08-06T13:53:39;4.57;;;1.30;;
70975;SDS011;58635;51.198;6.010;2023-08-06T13:56:06;4.65;;;1.40;;
70975;SDS011;58635;51.198;6.010;2023-08-06T13:58:33;6.47;;;1.60;;
70975;SDS011;58635;51.198;6.010;2023-08-06T14:01:00;3.45;;;1.30;;
70975;SDS011;58635;51.198;6.010;2023-08-06T14:03:26;6.65;;;1.50;;
70975;SDS011;58635;51.198;6.010;2023-08-06T14:05:52;4.93;;;1.25;;
70975;SDS011;58635;51.198;6.010;2023-08-06T14:08:22;4.78;;;1.10;;
70975;SDS011;58635;51.198;6.010;2023-08-06T14:10:50;3.92;;;1.20;;
70975;SDS011;58635;51.198;6.010;2023-08-06T14:13:17;5.47;;;1.30;;
70975;SDS011;58635;51.198;6.010;2023-08-06T14:15:44;4.25;;;1.17;;
70975;SDS011;58635;51.198;6.010;2023-08-06T14:18:16;2.97;;;1.10;;
70975;SDS011;58635;51.198;6.010;2023-08-06T14:20:43;4.13;;;1.08;;
70975;SDS011;58635;51.198;6.010;2023-08-06T14:23:15;3.28;;;1.08;;
70975;SDS011;58635;51.198;6.010;2023-08-06T14:25:42;5.20;;;1.20;;
70975;SDS011;58635;51.198;6.010;2023-08-06T14:28:08;5.07;;;1.63;;
70975;SDS011;58635;51.198;6.010;2023-08-06T14:30:34;6.82;;;1.70;;
70975;SDS011;58635;51.198;6.010;2023-08-06T14:33:02;4.45;;;1.38;;
70975;SDS011;58635;51.198;6.010;2023-08-06T14:35:29;4.65;;;1.15;;
70975;SDS011;58635;51.198;6.010;2023-08-06T14:37:55;4.63;;;1.52;;
70975;SDS011;58635;51.198;6.010;2023-08-06T14:40:21;5.05;;;1.20;;
70975;SDS011;58635;51.198;6.010;2023-08-06T14:42:48;3.92;;;1.00;;
70975;SDS011;58635;51.198;6.010;2023-08-06T14:45:14;5.50;;;1.30;;
70975;SDS011;58635;51.198;6.010;2023-08-06T14:47:40;4.05;;;1.10;;
70975;SDS011;58635;51.198;6.010;2023-08-06T14:50:07;4.05;;;1.40;;
70975;SDS011;58635;51.198;6.010;2023-08-06T14:52:34;4.03;;;1.50;;
70975;SDS011;58635;51.198;6.010;2023-08-06T14:55:00;4.10;;;1.33;;
70975;SDS011;58635;51.198;6.010;2023-08-06T14:57:28;6.03;;;1.50;;
70975;SDS011;58635;51.198;6.010;2023-08-06T14:59:54;6.50;;;1.65;;
70975;SDS011;58635;51.198;6.010;2023-08-06T15:02:21;4.18;;;1.40;;
70975;SDS011;58635;51.198;6.010;2023-08-06T15:04:48;3.88;;;1.60;;
70975;SDS011;58635;51.198;6.010;2023-08-06T15:07:16;8.38;;;1.85;;
70975;SDS011;58635;51.198;6.010;2023-08-06T15:09:42;4.97;;;1.50;;
70975;SDS011;58635;51.198;6.010;2023-08-06T15:12:08;5.43;;;1.52;;
70975;SDS011;58635;51.198;6.010;2023-08-06T15:14:35;5.30;;;1.67;;